sensor_id;sensor_type;location;lat;lon;timestamp;P1;durP1;ratioP1;P2;durP2;ratioP2
76405;SDS011;65234;50.044;19.258;2023-02-01T00:01:17;37.67;;;35.65;;
76405;SDS011;65234;50.044;19.258;2023-02-01T00:03:44;36.90;;;34.85;;
76405;SDS011;65234;50.044;19.258;2023-02-01T00:06:10;36.80;;;34.90;;
76405;SDS011;65234;50.044;19.258;2023-02-01T00:08:36;36.53;;;34.80;;
76405;SDS011;65234;50.044;19.258;2023-02-01T00:11:03;38.75;;;36.60;;
76405;SDS011;65234;50.044;19.258;2023-02-01T00:13:32;36.65;;;34.75;;
76405;SDS011;65234;50.044;19.258;2023-02-01T00:16:02;38.28;;;36.22;;
76405;SDS011;65234;50.044;19.258;2023-02-01T00:18:29;37.67;;;35.45;;
76405;SDS011;65234;50.044;19.258;2023-02-01T00:20:56;35.35;;;33.58;;
76405;SDS011;65234;50.044;19.258;2023-02-01T00:23:21;36.25;;;34.40;;
76405;SDS011;65234;50.044;19.258;2023-02-01T00:25:47;37.42;;;35.63;;
76405;SDS011;65234;50.044;19.258;2023-02-01T00:28:13;36.92;;;35.03;;
76405;SDS011;65234;50.044;19.258;2023-02-01T00:30:38;38.95;;;36.58;;
76405;SDS011;65234;50.044;19.258;2023-02-01T00:33:04;39.13;;;37.03;;
76405;SDS011;65234;50.044;19.258;2023-02-01T00:35:30;38.17;;;36.42;;
76405;SDS011;65234;50.044;19.258;2023-02-01T00:37:57;41.00;;;37.92;;
76405;SDS011;65234;50.044;19.258;2023-02-01T00:40:23;37.47;;;35.58;;
76405;SDS011;65234;50.044;19.258;2023-02-01T00:42:48;36.30;;;34.42;;
76405;SDS011;65234;50.044;19.258;2023-02-01T00:45:14;35.70;;;33.80;;
76405;SDS011;65234;50.044;19.258;2023-02-01T00:47:40;32.65;;;31.13;;
76405;SDS011;65234;50.044;19.258;2023-02-01T00:50:06;36.83;;;34.92;;
76405;SDS011;65234;50.044;19.258;2023-02-01T00:52:32;33.72;;;31.95;;
76405;SDS011;65234;50.044;19.258;2023-02-01T00:55:00;37.13;;;35.13;;
76405;SDS011;65234;50.044;19.258;2023-02-01T00:57:25;37.38;;;35.55;;
76405;SDS011;65234;50.044;19.258;2023-02-01T00:59:51;36.28;;;34.25;;
76405;SDS011;65234;50.044;19.258;2023-02-01T01:02:17;36.88;;;34.72;;
76405;SDS011;65234;50.044;19.258;2023-02-01T01:04:43;36.35;;;34.63;;
76405;SDS011;65234;50.044;19.258;2023-02-01T01:07:08;38.83;;;36.95;;
76405;SDS011;65234;50.044;19.258;2023-02-01T01:09:34;36.28;;;34.35;;
76405;SDS011;65234;50.044;19.258;2023-02-01T01:12:01;36.65;;;34.88;;
76405;SDS011;65234;50.044;19.258;2023-02-01T01:14:27;38.47;;;36.05;;
76405;SDS011;65234;50.044;19.258;2023-02-01T01:16:53;35.78;;;34.08;;
76405;SDS011;65234;50.044;19.258;2023-02-01T01:19:19;40.72;;;38.05;;
76405;SDS011;65234;50.044;19.258;2023-02-01T01:21:45;38.17;;;36.10;;
76405;SDS011;65234;50.044;19.258;2023-02-01T01:24:10;40.33;;;38.03;;
76405;SDS011;65234;50.044;19.258;2023-02-01T01:26:36;38.50;;;36.67;;
76405;SDS011;65234;50.044;19.258;2023-02-01T01:29:03;38.22;;;36.08;;
76405;SDS011;65234;50.044;19.258;2023-02-01T01:31:29;36.65;;;34.95;;
76405;SDS011;65234;50.044;19.258;2023-02-01T01:33:57;38.33;;;36.53;;
76405;SDS011;65234;50.044;19.258;2023-02-01T01:36:24;38.97;;;37.20;;
76405;SDS011;65234;50.044;19.258;2023-02-01T01:38:51;38.67;;;36.83;;
76405;SDS011;65234;50.044;19.258;2023-02-01T01:41:19;36.78;;;35.08;;
76405;SDS011;65234;50.044;19.258;2023-02-01T01:43:50;36.42;;;34.28;;
76405;SDS011;65234;50.044;19.258;2023-02-01T01:46:20;35.47;;;33.80;;
76405;SDS011;65234;50.044;19.258;2023-02-01T01:48:48;33.67;;;32.00;;
76405;SDS011;65234;50.044;19.258;2023-02-01T01:51:17;34.13;;;32.22;;
76405;SDS011;65234;50.044;19.258;2023-02-01T01:53:47;34.35;;;32.80;;
76405;SDS011;65234;50.044;19.258;2023-02-01T01:56:19;35.73;;;33.53;;
76405;SDS011;65234;50.044;19.258;2023-02-01T01:58:45;35.58;;;33.72;;
76405;SDS011;65234;50.044;19.258;2023-02-01T02:01:10;33.80;;;31.95;;
76405;SDS011;65234;50.044;19.258;2023-02-01T02:03:39;33.63;;;31.75;;
76405;SDS011;65234;50.044;19.258;2023-02-01T02:06:10;33.70;;;31.10;;
76405;SDS011;65234;50.044;19.258;2023-02-01T02:08:40;33.40;;;31.75;;
76405;SDS011;65234;50.044;19.258;2023-02-01T02:11:06;33.87;;;32.27;;
76405;SDS011;65234;50.044;19.258;2023-02-01T02:13:33;31.33;;;29.93;;
76405;SDS011;65234;50.044;19.258;2023-02-01T02:19:05;32.27;;;30.67;;
76405;SDS011;65234;50.044;19.258;2023-02-01T02:21:53;31.05;;;29.65;;
76405;SDS011;65234;50.044;19.258;2023-02-01T02:24:42;31.95;;;30.35;;
76405;SDS011;65234;50.044;19.258;2023-02-01T02:27:40;30.10;;;28.58;;
76405;SDS011;65234;50.044;19.258;2023-02-01T02:30:28;30.73;;;29.00;;
76405;SDS011;65234;50.044;19.258;2023-02-01T02:33:31;29.83;;;28.27;;
76405;SDS011;65234;50.044;19.258;2023-02-01T02:36:08;31.05;;;28.80;;
76405;SDS011;65234;50.044;19.258;2023-02-01T02:38:42;30.30;;;28.92;;
76405;SDS011;65234;50.044;19.258;2023-02-01T02:41:15;31.50;;;29.98;;
76405;SDS011;65234;50.044;19.258;2023-02-01T02:43:46;30.02;;;28.63;;
76405;SDS011;65234;50.044;19.258;2023-02-01T02:46:21;31.35;;;29.75;;
76405;SDS011;65234;50.044;19.258;2023-02-01T02:48:51;32.28;;;30.77;;
76405;SDS011;65234;50.044;19.258;2023-02-01T02:51:23;32.60;;;31.10;;
76405;SDS011;65234;50.044;19.258;2023-02-01T02:53:56;31.10;;;29.50;;
76405;SDS011;65234;50.044;19.258;2023-02-01T02:56:27;31.88;;;30.45;;
76405;SDS011;65234;50.044;19.258;2023-02-01T02:58:53;31.02;;;29.55;;
76405;SDS011;65234;50.044;19.258;2023-02-01T03:01:20;31.73;;;30.02;;
76405;SDS011;65234;50.044;19.258;2023-02-01T03:03:45;29.98;;;28.63;;
76405;SDS011;65234;50.044;19.258;2023-02-01T03:06:14;31.58;;;30.17;;
76405;SDS011;65234;50.044;19.258;2023-02-01T03:08:42;32.10;;;30.48;;
76405;SDS011;65234;50.044;19.258;2023-02-01T03:11:09;31.40;;;30.00;;
76405;SDS011;65234;50.044;19.258;2023-02-01T03:13:38;30.77;;;29.15;;
76405;SDS011;65234;50.044;19.258;2023-02-01T03:16:10;31.52;;;30.13;;
76405;SDS011;65234;50.044;19.258;2023-02-01T03:18:44;31.15;;;29.75;;
76405;SDS011;65234;50.044;19.258;2023-02-01T03:21:16;32.70;;;31.00;;
76405;SDS011;65234;50.044;19.258;2023-02-01T03:23:45;30.00;;;28.63;;
76405;SDS011;65234;50.044;19.258;2023-02-01T03:26:14;34.92;;;33.00;;
76405;SDS011;65234;50.044;19.258;2023-02-01T03:28:43;31.65;;;30.17;;
76405;SDS011;65234;50.044;19.258;2023-02-01T03:31:15;32.67;;;31.17;;
76405;SDS011;65234;50.044;19.258;2023-02-01T03:33:41;33.83;;;31.83;;
76405;SDS011;65234;50.044;19.258;2023-02-01T03:36:15;31.95;;;30.52;;
76405;SDS011;65234;50.044;19.258;2023-02-01T03:38:48;33.80;;;32.03;;
76405;SDS011;65234;50.044;19.258;2023-02-01T03:41:23;31.05;;;29.65;;
76405;SDS011;65234;50.044;19.258;2023-02-01T03:43:52;33.33;;;31.67;;
76405;SDS011;65234;50.044;19.258;2023-02-01T03:46:28;33.47;;;31.77;;
76405;SDS011;65234;50.044;19.258;2023-02-01T03:48:57;32.63;;;31.02;;
76405;SDS011;65234;50.044;19.258;2023-02-01T03:51:27;32.50;;;30.73;;
76405;SDS011;65234;50.044;19.258;2023-02-01T03:53:55;32.17;;;30.67;;
76405;SDS011;65234;50.044;19.258;2023-02-01T03:56:22;35.75;;;32.40;;
76405;SDS011;65234;50.044;19.258;2023-02-01T03:58:50;30.77;;;28.95;;
76405;SDS011;65234;50.044;19.258;2023-02-01T04:01:16;32.17;;;30.73;;
76405;SDS011;65234;50.044;19.258;2023-02-01T04:03:42;32.83;;;31.20;;
76405;SDS011;65234;50.044;19.258;2023-02-01T04:06:07;32.15;;;30.65;;
76405;SDS011;65234;50.044;19.258;2023-02-01T04:08:34;31.83;;;30.13;;
76405;SDS011;65234;50.044;19.258;2023-02-01T04:11:00;33.13;;;31.60;;
76405;SDS011;65234;50.044;19.258;2023-02-01T04:13:35;34.83;;;32.90;;
76405;SDS011;65234;50.044;19.258;2023-02-01T04:16:01;30.75;;;29.33;;
76405;SDS011;65234;50.044;19.258;2023-02-01T04:18:26;33.92;;;32.13;;
76405;SDS011;65234;50.044;19.258;2023-02-01T04:20:52;31.15;;;29.65;;
76405;SDS011;65234;50.044;19.258;2023-02-01T04:23:18;31.50;;;30.00;;
76405;SDS011;65234;50.044;19.258;2023-02-01T04:25:45;31.50;;;29.83;;
76405;SDS011;65234;50.044;19.258;2023-02-01T04:28:12;32.53;;;30.92;;
76405;SDS011;65234;50.044;19.258;2023-02-01T04:30:38;30.83;;;29.42;;
76405;SDS011;65234;50.044;19.258;2023-02-01T04:33:03;30.73;;;29.25;;
76405;SDS011;65234;50.044;19.258;2023-02-01T04:35:29;32.65;;;30.95;;
76405;SDS011;65234;50.044;19.258;2023-02-01T04:37:55;33.53;;;31.75;;
76405;SDS011;65234;50.044;19.258;2023-02-01T04:40:21;31.10;;;29.65;;
76405;SDS011;65234;50.044;19.258;2023-02-01T04:42:47;32.65;;;30.70;;
76405;SDS011;65234;50.044;19.258;2023-02-01T04:45:13;33.13;;;31.58;;
76405;SDS011;65234;50.044;19.258;2023-02-01T04:47:39;31.45;;;29.83;;
76405;SDS011;65234;50.044;19.258;2023-02-01T04:50:05;31.95;;;30.45;;
76405;SDS011;65234;50.044;19.258;2023-02-01T04:52:31;32.17;;;30.58;;
76405;SDS011;65234;50.044;19.258;2023-02-01T04:54:57;33.65;;;31.95;;
76405;SDS011;65234;50.044;19.258;2023-02-01T04:57:23;34.53;;;32.65;;
76405;SDS011;65234;50.044;19.258;2023-02-01T04:59:50;35.17;;;32.17;;
76405;SDS011;65234;50.044;19.258;2023-02-01T05:02:16;32.20;;;30.58;;
76405;SDS011;65234;50.044;19.258;2023-02-01T05:04:42;34.35;;;32.72;;
76405;SDS011;65234;50.044;19.258;2023-02-01T05:07:07;33.70;;;32.10;;
76405;SDS011;65234;50.044;19.258;2023-02-01T05:09:33;35.30;;;33.30;;
76405;SDS011;65234;50.044;19.258;2023-02-01T05:11:59;33.72;;;32.03;;
76405;SDS011;65234;50.044;19.258;2023-02-01T05:14:25;32.78;;;31.25;;
76405;SDS011;65234;50.044;19.258;2023-02-01T05:16:52;33.47;;;31.77;;
76405;SDS011;65234;50.044;19.258;2023-02-01T05:19:18;33.30;;;31.15;;
76405;SDS011;65234;50.044;19.258;2023-02-01T05:21:44;35.35;;;33.58;;
76405;SDS011;65234;50.044;19.258;2023-02-01T05:24:09;36.25;;;34.45;;
76405;SDS011;65234;50.044;19.258;2023-02-01T05:26:35;37.10;;;34.97;;
76405;SDS011;65234;50.044;19.258;2023-02-01T05:29:02;33.13;;;31.52;;
76405;SDS011;65234;50.044;19.258;2023-02-01T05:31:28;36.05;;;34.05;;
76405;SDS011;65234;50.044;19.258;2023-02-01T05:33:55;36.40;;;33.67;;
76405;SDS011;65234;50.044;19.258;2023-02-01T05:36:21;36.17;;;33.63;;
76405;SDS011;65234;50.044;19.258;2023-02-01T05:38:46;38.05;;;35.60;;
76405;SDS011;65234;50.044;19.258;2023-02-01T05:41:12;35.65;;;33.35;;
76405;SDS011;65234;50.044;19.258;2023-02-01T05:43:38;33.97;;;32.28;;
76405;SDS011;65234;50.044;19.258;2023-02-01T05:46:03;36.40;;;34.50;;
76405;SDS011;65234;50.044;19.258;2023-02-01T05:48:30;36.42;;;34.63;;
76405;SDS011;65234;50.044;19.258;2023-02-01T05:50:57;36.20;;;34.30;;
76405;SDS011;65234;50.044;19.258;2023-02-01T05:53:22;36.45;;;34.50;;
76405;SDS011;65234;50.044;19.258;2023-02-01T05:55:48;35.72;;;33.65;;
76405;SDS011;65234;50.044;19.258;2023-02-01T05:58:14;34.97;;;33.13;;
76405;SDS011;65234;50.044;19.258;2023-02-01T06:00:39;37.20;;;35.22;;
76405;SDS011;65234;50.044;19.258;2023-02-01T06:03:05;35.47;;;33.60;;
76405;SDS011;65234;50.044;19.258;2023-02-01T06:05:31;36.08;;;34.35;;
76405;SDS011;65234;50.044;19.258;2023-02-01T06:07:59;38.22;;;35.22;;
76405;SDS011;65234;50.044;19.258;2023-02-01T06:10:25;37.03;;;34.75;;
76405;SDS011;65234;50.044;19.258;2023-02-01T06:12:50;35.53;;;33.72;;
76405;SDS011;65234;50.044;19.258;2023-02-01T06:15:16;35.22;;;33.13;;
76405;SDS011;65234;50.044;19.258;2023-02-01T06:17:43;35.53;;;33.90;;
76405;SDS011;65234;50.044;19.258;2023-02-01T06:20:09;36.03;;;34.30;;
76405;SDS011;65234;50.044;19.258;2023-02-01T06:22:36;37.08;;;35.38;;
76405;SDS011;65234;50.044;19.258;2023-02-01T06:25:04;37.83;;;35.70;;
76405;SDS011;65234;50.044;19.258;2023-02-01T06:27:31;35.97;;;33.97;;
76405;SDS011;65234;50.044;19.258;2023-02-01T06:29:56;39.92;;;36.75;;
76405;SDS011;65234;50.044;19.258;2023-02-01T06:32:22;38.00;;;36.05;;
76405;SDS011;65234;50.044;19.258;2023-02-01T06:34:48;38.90;;;36.67;;
76405;SDS011;65234;50.044;19.258;2023-02-01T06:37:14;38.60;;;36.22;;
76405;SDS011;65234;50.044;19.258;2023-02-01T06:39:40;37.78;;;35.67;;
76405;SDS011;65234;50.044;19.258;2023-02-01T06:42:07;37.95;;;36.08;;
76405;SDS011;65234;50.044;19.258;2023-02-01T06:44:32;42.13;;;37.90;;
76405;SDS011;65234;50.044;19.258;2023-02-01T06:46:58;40.55;;;37.80;;
76405;SDS011;65234;50.044;19.258;2023-02-01T06:49:24;39.72;;;37.63;;
76405;SDS011;65234;50.044;19.258;2023-02-01T06:51:50;38.67;;;36.83;;
76405;SDS011;65234;50.044;19.258;2023-02-01T06:54:15;39.03;;;36.75;;
76405;SDS011;65234;50.044;19.258;2023-02-01T06:56:41;41.78;;;39.38;;
76405;SDS011;65234;50.044;19.258;2023-02-01T06:59:09;36.60;;;34.83;;
76405;SDS011;65234;50.044;19.258;2023-02-01T07:01:35;41.83;;;38.90;;
76405;SDS011;65234;50.044;19.258;2023-02-01T07:04:01;36.40;;;34.70;;
76405;SDS011;65234;50.044;19.258;2023-02-01T07:06:27;37.92;;;35.58;;
76405;SDS011;65234;50.044;19.258;2023-02-01T07:08:52;38.50;;;36.67;;
76405;SDS011;65234;50.044;19.258;2023-02-01T07:11:19;36.92;;;35.13;;
76405;SDS011;65234;50.044;19.258;2023-02-01T07:13:44;38.47;;;36.55;;
76405;SDS011;65234;50.044;19.258;2023-02-01T07:16:13;39.10;;;36.65;;
76405;SDS011;65234;50.044;19.258;2023-02-01T07:18:40;38.08;;;36.17;;
76405;SDS011;65234;50.044;19.258;2023-02-01T07:21:06;36.47;;;34.65;;
76405;SDS011;65234;50.044;19.258;2023-02-01T07:23:31;39.67;;;37.72;;
76405;SDS011;65234;50.044;19.258;2023-02-01T07:25:59;40.28;;;38.05;;
76405;SDS011;65234;50.044;19.258;2023-02-01T07:28:27;38.92;;;36.85;;
76405;SDS011;65234;50.044;19.258;2023-02-01T07:31:01;40.60;;;38.25;;
76405;SDS011;65234;50.044;19.258;2023-02-01T07:33:29;38.75;;;36.83;;
76405;SDS011;65234;50.044;19.258;2023-02-01T07:35:55;38.92;;;36.88;;
76405;SDS011;65234;50.044;19.258;2023-02-01T07:38:20;38.58;;;36.55;;
76405;SDS011;65234;50.044;19.258;2023-02-01T07:40:46;38.78;;;36.72;;
76405;SDS011;65234;50.044;19.258;2023-02-01T07:43:12;44.03;;;41.42;;
76405;SDS011;65234;50.044;19.258;2023-02-01T07:45:39;41.22;;;38.70;;
76405;SDS011;65234;50.044;19.258;2023-02-01T07:48:04;40.80;;;38.15;;
76405;SDS011;65234;50.044;19.258;2023-02-01T07:50:31;39.35;;;37.47;;
76405;SDS011;65234;50.044;19.258;2023-02-01T07:52:58;42.97;;;39.50;;
76405;SDS011;65234;50.044;19.258;2023-02-01T07:55:24;37.63;;;35.70;;
76405;SDS011;65234;50.044;19.258;2023-02-01T07:57:50;40.70;;;38.25;;
76405;SDS011;65234;50.044;19.258;2023-02-01T08:00:16;41.45;;;38.92;;
76405;SDS011;65234;50.044;19.258;2023-02-01T08:02:42;39.08;;;37.20;;
76405;SDS011;65234;50.044;19.258;2023-02-01T08:05:08;42.15;;;39.20;;
76405;SDS011;65234;50.044;19.258;2023-02-01T08:07:35;41.03;;;38.63;;
76405;SDS011;65234;50.044;19.258;2023-02-01T08:10:01;42.78;;;40.75;;
76405;SDS011;65234;50.044;19.258;2023-02-01T08:12:27;42.10;;;39.55;;
76405;SDS011;65234;50.044;19.258;2023-02-01T08:14:53;42.03;;;39.80;;
76405;SDS011;65234;50.044;19.258;2023-02-01T08:17:19;40.90;;;39.00;;
76405;SDS011;65234;50.044;19.258;2023-02-01T08:19:45;40.80;;;38.65;;
76405;SDS011;65234;50.044;19.258;2023-02-01T08:22:10;42.85;;;40.70;;
76405;SDS011;65234;50.044;19.258;2023-02-01T08:24:38;41.03;;;39.05;;
76405;SDS011;65234;50.044;19.258;2023-02-01T08:27:03;38.97;;;37.03;;
76405;SDS011;65234;50.044;19.258;2023-02-01T08:29:29;41.58;;;39.38;;
76405;SDS011;65234;50.044;19.258;2023-02-01T08:31:55;37.65;;;35.67;;
76405;SDS011;65234;50.044;19.258;2023-02-01T08:34:21;40.67;;;38.70;;
76405;SDS011;65234;50.044;19.258;2023-02-01T08:36:47;40.05;;;38.00;;
76405;SDS011;65234;50.044;19.258;2023-02-01T08:39:13;41.95;;;39.85;;
76405;SDS011;65234;50.044;19.258;2023-02-01T08:41:40;40.58;;;38.58;;
76405;SDS011;65234;50.044;19.258;2023-02-01T08:44:06;40.75;;;38.70;;
76405;SDS011;65234;50.044;19.258;2023-02-01T08:46:32;39.97;;;38.00;;
76405;SDS011;65234;50.044;19.258;2023-02-01T08:48:58;43.70;;;41.20;;
76405;SDS011;65234;50.044;19.258;2023-02-01T08:51:23;42.80;;;40.25;;
76405;SDS011;65234;50.044;19.258;2023-02-01T08:53:49;43.78;;;41.47;;
76405;SDS011;65234;50.044;19.258;2023-02-01T08:56:16;41.67;;;39.67;;
76405;SDS011;65234;50.044;19.258;2023-02-01T08:58:44;45.97;;;43.20;;
76405;SDS011;65234;50.044;19.258;2023-02-01T09:01:11;41.75;;;39.55;;
76405;SDS011;65234;50.044;19.258;2023-02-01T09:03:39;42.65;;;40.25;;
76405;SDS011;65234;50.044;19.258;2023-02-01T09:06:05;43.13;;;40.63;;
76405;SDS011;65234;50.044;19.258;2023-02-01T09:08:33;42.90;;;40.60;;
76405;SDS011;65234;50.044;19.258;2023-02-01T09:11:00;40.67;;;38.67;;
76405;SDS011;65234;50.044;19.258;2023-02-01T09:13:27;41.67;;;39.38;;
76405;SDS011;65234;50.044;19.258;2023-02-01T09:15:54;43.30;;;40.58;;
76405;SDS011;65234;50.044;19.258;2023-02-01T09:18:20;46.72;;;44.00;;
76405;SDS011;65234;50.044;19.258;2023-02-01T09:20:46;44.47;;;41.97;;
76405;SDS011;65234;50.044;19.258;2023-02-01T09:23:12;47.65;;;44.70;;
76405;SDS011;65234;50.044;19.258;2023-02-01T09:25:37;44.00;;;41.58;;
76405;SDS011;65234;50.044;19.258;2023-02-01T09:28:04;43.42;;;41.17;;
76405;SDS011;65234;50.044;19.258;2023-02-01T09:30:30;43.65;;;41.47;;
76405;SDS011;65234;50.044;19.258;2023-02-01T09:32:57;43.75;;;41.42;;
76405;SDS011;65234;50.044;19.258;2023-02-01T09:35:23;43.92;;;41.63;;
76405;SDS011;65234;50.044;19.258;2023-02-01T09:37:48;43.05;;;41.05;;
76405;SDS011;65234;50.044;19.258;2023-02-01T09:40:14;43.25;;;41.13;;
76405;SDS011;65234;50.044;19.258;2023-02-01T09:42:57;43.55;;;41.38;;
76405;SDS011;65234;50.044;19.258;2023-02-01T09:45:38;42.40;;;40.22;;
76405;SDS011;65234;50.044;19.258;2023-02-01T09:50:39;39.13;;;37.20;;
76405;SDS011;65234;50.044;19.258;2023-02-01T09:53:10;40.50;;;37.55;;
76405;SDS011;65234;50.044;19.258;2023-02-01T09:55:41;40.83;;;38.72;;
76405;SDS011;65234;50.044;19.258;2023-02-01T09:58:13;43.08;;;40.90;;
76405;SDS011;65234;50.044;19.258;2023-02-01T10:00:42;39.78;;;37.60;;
76405;SDS011;65234;50.044;19.258;2023-02-01T10:03:15;42.28;;;40.08;;
76405;SDS011;65234;50.044;19.258;2023-02-01T10:05:57;43.88;;;40.20;;
76405;SDS011;65234;50.044;19.258;2023-02-01T10:08:33;40.15;;;37.90;;
76405;SDS011;65234;50.044;19.258;2023-02-01T10:11:19;41.78;;;39.78;;
76405;SDS011;65234;50.044;19.258;2023-02-01T10:13:58;41.72;;;39.22;;
76405;SDS011;65234;50.044;19.258;2023-02-01T10:16:35;42.97;;;40.67;;
76405;SDS011;65234;50.044;19.258;2023-02-01T10:19:14;43.22;;;40.92;;
76405;SDS011;65234;50.044;19.258;2023-02-01T10:21:50;41.35;;;38.70;;
76405;SDS011;65234;50.044;19.258;2023-02-01T10:27:13;41.75;;;39.63;;
76405;SDS011;65234;50.044;19.258;2023-02-01T10:29:43;40.92;;;38.83;;
76405;SDS011;65234;50.044;19.258;2023-02-01T10:32:16;42.92;;;40.63;;
76405;SDS011;65234;50.044;19.258;2023-02-01T10:34:46;43.40;;;40.90;;
76405;SDS011;65234;50.044;19.258;2023-02-01T10:39:49;40.95;;;38.03;;
76405;SDS011;65234;50.044;19.258;2023-02-01T10:42:19;41.25;;;39.10;;
76405;SDS011;65234;50.044;19.258;2023-02-01T10:44:47;44.65;;;42.53;;
76405;SDS011;65234;50.044;19.258;2023-02-01T10:47:13;46.60;;;44.08;;
76405;SDS011;65234;50.044;19.258;2023-02-01T10:49:41;44.70;;;42.10;;
76405;SDS011;65234;50.044;19.258;2023-02-01T10:52:14;43.00;;;40.90;;
76405;SDS011;65234;50.044;19.258;2023-02-01T10:54:42;45.75;;;42.72;;
76405;SDS011;65234;50.044;19.258;2023-02-01T10:57:08;45.22;;;42.78;;
76405;SDS011;65234;50.044;19.258;2023-02-01T10:59:35;46.05;;;43.83;;
76405;SDS011;65234;50.044;19.258;2023-02-01T11:02:02;47.03;;;44.25;;
76405;SDS011;65234;50.044;19.258;2023-02-01T11:04:41;43.75;;;41.35;;
76405;SDS011;65234;50.044;19.258;2023-02-01T11:07:08;44.03;;;41.92;;
76405;SDS011;65234;50.044;19.258;2023-02-01T11:09:42;40.85;;;38.95;;
76405;SDS011;65234;50.044;19.258;2023-02-01T11:12:22;45.95;;;43.45;;
76405;SDS011;65234;50.044;19.258;2023-02-01T11:15:03;43.30;;;41.30;;
76405;SDS011;65234;50.044;19.258;2023-02-01T11:17:39;45.13;;;42.60;;
76405;SDS011;65234;50.044;19.258;2023-02-01T11:20:12;46.35;;;43.70;;
76405;SDS011;65234;50.044;19.258;2023-02-01T11:22:46;44.05;;;41.85;;
76405;SDS011;65234;50.044;19.258;2023-02-01T11:25:14;46.92;;;44.42;;
76405;SDS011;65234;50.044;19.258;2023-02-01T11:27:41;47.88;;;45.38;;
76405;SDS011;65234;50.044;19.258;2023-02-01T11:30:13;49.13;;;46.63;;
76405;SDS011;65234;50.044;19.258;2023-02-01T11:32:41;45.30;;;43.15;;
76405;SDS011;65234;50.044;19.258;2023-02-01T11:35:11;48.45;;;45.67;;
76405;SDS011;65234;50.044;19.258;2023-02-01T11:37:43;47.78;;;45.28;;
76405;SDS011;65234;50.044;19.258;2023-02-01T11:40:23;48.13;;;45.33;;
76405;SDS011;65234;50.044;19.258;2023-02-01T11:42:56;47.60;;;45.22;;
76405;SDS011;65234;50.044;19.258;2023-02-01T11:45:25;46.88;;;44.75;;
76405;SDS011;65234;50.044;19.258;2023-02-01T11:47:51;47.67;;;44.85;;
76405;SDS011;65234;50.044;19.258;2023-02-01T11:50:19;48.25;;;45.45;;
76405;SDS011;65234;50.044;19.258;2023-02-01T11:52:57;41.72;;;39.53;;
76405;SDS011;65234;50.044;19.258;2023-02-01T11:55:47;43.45;;;41.35;;
76405;SDS011;65234;50.044;19.258;2023-02-01T11:58:28;44.65;;;42.47;;
76405;SDS011;65234;50.044;19.258;2023-02-01T12:01:20;43.97;;;41.67;;
76405;SDS011;65234;50.044;19.258;2023-02-01T12:04:07;43.47;;;41.08;;
76405;SDS011;65234;50.044;19.258;2023-02-01T12:06:47;43.40;;;40.60;;
76405;SDS011;65234;50.044;19.258;2023-02-01T12:09:20;43.83;;;41.47;;
76405;SDS011;65234;50.044;19.258;2023-02-01T12:12:00;43.75;;;40.53;;
76405;SDS011;65234;50.044;19.258;2023-02-01T12:14:36;43.10;;;40.10;;
76405;SDS011;65234;50.044;19.258;2023-02-01T12:17:27;41.85;;;39.53;;
76405;SDS011;65234;50.044;19.258;2023-02-01T12:23:01;42.63;;;40.47;;
76405;SDS011;65234;50.044;19.258;2023-02-01T12:25:46;44.13;;;41.25;;
76405;SDS011;65234;50.044;19.258;2023-02-01T12:31:34;43.88;;;41.63;;
76405;SDS011;65234;50.044;19.258;2023-02-01T12:37:04;43.42;;;40.72;;
76405;SDS011;65234;50.044;19.258;2023-02-01T12:39:38;44.88;;;42.58;;
76405;SDS011;65234;50.044;19.258;2023-02-01T12:42:11;45.33;;;43.03;;
76405;SDS011;65234;50.044;19.258;2023-02-01T12:44:43;45.38;;;43.20;;
76405;SDS011;65234;50.044;19.258;2023-02-01T12:47:16;43.28;;;40.78;;
76405;SDS011;65234;50.044;19.258;2023-02-01T12:49:49;46.80;;;44.08;;
76405;SDS011;65234;50.044;19.258;2023-02-01T12:52:21;45.30;;;43.17;;
76405;SDS011;65234;50.044;19.258;2023-02-01T12:54:54;48.08;;;45.72;;
76405;SDS011;65234;50.044;19.258;2023-02-01T12:57:26;45.95;;;43.67;;
76405;SDS011;65234;50.044;19.258;2023-02-01T12:59:56;45.47;;;42.97;;
76405;SDS011;65234;50.044;19.258;2023-02-01T13:02:31;42.92;;;40.83;;
76405;SDS011;65234;50.044;19.258;2023-02-01T13:05:13;47.22;;;44.72;;
76405;SDS011;65234;50.044;19.258;2023-02-01T13:07:43;47.63;;;44.88;;
76405;SDS011;65234;50.044;19.258;2023-02-01T13:10:15;45.95;;;43.00;;
76405;SDS011;65234;50.044;19.258;2023-02-01T13:12:49;46.97;;;44.38;;
76405;SDS011;65234;50.044;19.258;2023-02-01T13:15:20;46.65;;;44.38;;
76405;SDS011;65234;50.044;19.258;2023-02-01T13:17:50;46.33;;;43.83;;
76405;SDS011;65234;50.044;19.258;2023-02-01T13:20:19;45.13;;;42.63;;
76405;SDS011;65234;50.044;19.258;2023-02-01T13:22:50;47.28;;;44.58;;
76405;SDS011;65234;50.044;19.258;2023-02-01T13:25:23;50.00;;;46.10;;
76405;SDS011;65234;50.044;19.258;2023-02-01T13:27:57;45.58;;;43.53;;
76405;SDS011;65234;50.044;19.258;2023-02-01T13:30:28;47.55;;;44.90;;
76405;SDS011;65234;50.044;19.258;2023-02-01T13:33:09;44.72;;;42.53;;
76405;SDS011;65234;50.044;19.258;2023-02-01T13:35:52;47.55;;;45.03;;
76405;SDS011;65234;50.044;19.258;2023-02-01T13:38:38;46.72;;;44.47;;
76405;SDS011;65234;50.044;19.258;2023-02-01T13:41:19;46.25;;;43.95;;
76405;SDS011;65234;50.044;19.258;2023-02-01T13:43:52;46.03;;;43.60;;
76405;SDS011;65234;50.044;19.258;2023-02-01T13:46:20;45.47;;;43.05;;
76405;SDS011;65234;50.044;19.258;2023-02-01T13:48:47;47.35;;;45.15;;
76405;SDS011;65234;50.044;19.258;2023-02-01T13:51:16;48.40;;;45.88;;
76405;SDS011;65234;50.044;19.258;2023-02-01T13:53:55;45.03;;;42.83;;
76405;SDS011;65234;50.044;19.258;2023-02-01T13:56:21;45.13;;;42.95;;
76405;SDS011;65234;50.044;19.258;2023-02-01T13:58:49;46.80;;;44.42;;
76405;SDS011;65234;50.044;19.258;2023-02-01T14:07:16;45.15;;;42.83;;
76405;SDS011;65234;50.044;19.258;2023-02-01T14:09:44;48.50;;;46.13;;
76405;SDS011;65234;50.044;19.258;2023-02-01T14:17:56;42.22;;;40.25;;
76405;SDS011;65234;50.044;19.258;2023-02-01T14:23:11;42.35;;;40.08;;
76405;SDS011;65234;50.044;19.258;2023-02-01T14:25:40;43.42;;;41.15;;
76405;SDS011;65234;50.044;19.258;2023-02-01T14:28:10;45.55;;;43.20;;
76405;SDS011;65234;50.044;19.258;2023-02-01T14:30:37;40.17;;;38.15;;
76405;SDS011;65234;50.044;19.258;2023-02-01T14:33:12;43.33;;;40.83;;
76405;SDS011;65234;50.044;19.258;2023-02-01T14:36:00;40.97;;;38.97;;
76405;SDS011;65234;50.044;19.258;2023-02-01T14:38:30;38.90;;;36.65;;
76405;SDS011;65234;50.044;19.258;2023-02-01T14:41:09;40.25;;;38.38;;
76405;SDS011;65234;50.044;19.258;2023-02-01T14:43:59;37.90;;;35.92;;
76405;SDS011;65234;50.044;19.258;2023-02-01T14:50:00;39.22;;;36.88;;
76405;SDS011;65234;50.044;19.258;2023-02-01T14:52:46;38.60;;;36.78;;
76405;SDS011;65234;50.044;19.258;2023-02-01T14:55:15;40.20;;;37.88;;
76405;SDS011;65234;50.044;19.258;2023-02-01T14:57:46;39.17;;;37.17;;
76405;SDS011;65234;50.044;19.258;2023-02-01T15:00:20;38.72;;;36.42;;